Collings Lakes, New Jersey
Current Conditions -  °F | °C
As of 8:13 PM on Wednesday 26 Nov 2014 (Local Time) from KMIV Reporting Station
Overcast Overcast  
Wind Chill: 29°   Ceiling: 3500
Heat Index: 37°   Visibility: 10mi
Dew Point: 34°   Wind: 12mph
Humidity: 89%   Direction: 330°NNW
Pressure: 29.84"   Gusts: 20mph
Location:  39.6478°N, 74.9514°W
Report Text: KMIV 270113Z AUTO 33010G17KT 10SM FEW008 SCT012 OVC035 03/01 A2984 RMK AO2 UPE04RAB04E12 P0000 T00280011
Loading
Personal Weather Stations






























Interactive Weather Map New forecast layout! Learn more

10-Day Weather Forecast

Advertisements
Track Severe Weather on mobile